createdAt,value
2023-09-12T00:00:43.996Z,19.93
2023-09-12T00:01:45.928Z,19.92
2023-09-12T00:02:47.754Z,19.93
2023-09-12T00:03:49.609Z,19.90
2023-09-12T00:04:52.168Z,19.89
2023-09-12T00:05:58.250Z,19.89
2023-09-12T00:07:00.439Z,19.84
2023-09-12T00:08:02.453Z,19.81
2023-09-12T00:09:06.880Z,19.76
2023-09-12T00:10:08.757Z,19.73
2023-09-12T00:11:12.716Z,19.72
2023-09-12T00:12:17.628Z,19.71
2023-09-12T00:13:19.400Z,19.72
2023-09-12T00:14:21.165Z,19.73
2023-09-12T00:15:23.337Z,19.73
2023-09-12T00:16:25.294Z,19.75
2023-09-12T00:17:28.254Z,19.75
2023-09-12T00:18:30.087Z,19.76
2023-09-12T00:19:32.299Z,19.76
2023-09-12T00:20:34.284Z,19.76
2023-09-12T00:21:36.100Z,19.76
2023-09-12T00:22:37.989Z,19.76
2023-09-12T00:23:39.852Z,19.74
2023-09-12T00:24:41.652Z,19.73
2023-09-12T00:25:43.725Z,19.72
2023-09-12T00:26:45.427Z,19.72
2023-09-12T00:27:47.340Z,19.72
2023-09-12T00:28:49.080Z,19.67
2023-09-12T00:29:50.779Z,19.68
2023-09-12T00:30:53.005Z,19.65
2023-09-12T00:31:55.141Z,19.63
2023-09-12T00:32:57.012Z,19.62
2023-09-12T00:33:58.927Z,19.59
2023-09-12T00:35:00.721Z,19.53
2023-09-12T00:36:02.521Z,19.52
2023-09-12T00:37:04.388Z,19.52
2023-09-12T00:38:07.564Z,19.54
2023-09-12T00:39:09.482Z,19.56
2023-09-12T00:40:11.955Z,19.57
2023-09-12T00:41:13.722Z,19.57
2023-09-12T00:42:15.494Z,19.56
2023-09-12T00:43:18.456Z,19.58
2023-09-12T00:44:20.312Z,19.57
2023-09-12T00:45:22.353Z,19.56
2023-09-12T00:46:24.942Z,19.57
2023-09-12T00:47:27.630Z,19.55
2023-09-12T00:48:30.106Z,19.54
2023-09-12T00:49:32.291Z,19.54
2023-09-12T00:50:35.127Z,19.55
2023-09-12T00:51:38.005Z,19.55
2023-09-12T00:52:39.884Z,19.55
2023-09-12T00:53:41.685Z,19.58
2023-09-12T00:54:43.562Z,19.57
2023-09-12T00:55:51.300Z,19.58
2023-09-12T00:56:53.082Z,19.57
2023-09-12T00:57:54.890Z,19.55
2023-09-12T00:58:57.908Z,19.55
2023-09-12T00:59:59.916Z,19.55
2023-09-12T01:01:01.759Z,19.56
2023-09-12T01:02:04.211Z,19.57
2023-09-12T01:03:06.568Z,19.55
2023-09-12T01:04:20.464Z,19.55
2023-09-12T01:05:30.341Z,19.52
2023-09-12T01:06:33.260Z,19.51
2023-09-12T01:07:35.682Z,19.50
2023-09-12T01:08:39.483Z,19.49
2023-09-12T01:09:41.879Z,19.50
2023-09-12T01:10:47.377Z,19.50
2023-09-12T01:11:49.615Z,19.51
2023-09-12T01:12:51.695Z,19.50
2023-09-12T01:13:53.442Z,19.50
2023-09-12T01:14:55.269Z,19.51
2023-09-12T01:15:57.247Z,19.49
2023-09-12T01:16:59.685Z,19.44
2023-09-12T01:18:01.617Z,19.40
2023-09-12T01:19:05.138Z,19.39
2023-09-12T01:20:08.828Z,19.36
2023-09-12T01:21:13.730Z,19.34
2023-09-12T01:22:27.973Z,19.33
2023-09-12T01:23:48.454Z,19.33
2023-09-12T01:24:52.879Z,19.32
2023-09-12T01:26:06.903Z,19.33
2023-09-12T01:27:20.805Z,19.31
2023-09-12T01:28:24.804Z,19.27
2023-09-12T01:29:27.492Z,19.24
2023-09-12T01:30:29.394Z,19.23
2023-09-12T01:31:31.505Z,19.24
2023-09-12T01:32:34.910Z,19.24
2023-09-12T01:33:36.818Z,19.24
2023-09-12T01:34:38.647Z,19.23
2023-09-12T01:35:40.467Z,19.23
2023-09-12T01:36:42.457Z,19.23
2023-09-12T01:37:44.278Z,19.23
2023-09-12T01:38:46.393Z,19.20
2023-09-12T01:39:48.615Z,19.19
2023-09-12T01:40:52.021Z,19.18
2023-09-12T01:41:54.372Z,19.19
2023-09-12T01:42:57.420Z,19.20
2023-09-12T01:44:00.554Z,19.22
2023-09-12T01:45:02.922Z,19.21
2023-09-12T01:46:05.008Z,19.23
2023-09-12T01:47:07.326Z,19.21
2023-09-12T01:48:09.391Z,19.22
2023-09-12T01:49:11.639Z,19.20
2023-09-12T01:50:14.541Z,19.19
2023-09-12T01:51:17.037Z,19.19
2023-09-12T01:52:19.622Z,19.18
2023-09-12T01:53:21.736Z,19.17
2023-09-12T01:54:24.533Z,19.18
2023-09-12T01:55:26.957Z,19.18
2023-09-12T01:56:29.381Z,19.17
2023-09-12T01:57:32.049Z,19.17
2023-09-12T01:58:34.967Z,19.16
2023-09-12T01:59:36.762Z,19.16
2023-09-12T02:00:39.581Z,19.16
2023-09-12T02:01:42.957Z,19.15
2023-09-12T02:02:44.816Z,19.14
2023-09-12T02:03:46.965Z,19.16
2023-09-12T02:05:06.944Z,19.16
2023-09-12T02:06:08.821Z,19.16
2023-09-12T02:07:10.721Z,19.16
2023-09-12T02:08:12.478Z,19.15
2023-09-12T02:09:17.436Z,19.16
2023-09-12T02:10:19.528Z,19.14
2023-09-12T02:11:21.347Z,19.13
2023-09-12T02:12:23.308Z,19.12
2023-09-12T02:13:25.131Z,19.12
2023-09-12T02:14:26.895Z,19.10
2023-09-12T02:15:28.775Z,19.08
2023-09-12T02:16:31.320Z,19.08
2023-09-12T02:17:33.384Z,19.07
2023-09-12T02:18:35.563Z,19.05
2023-09-12T02:19:37.335Z,19.01
2023-09-12T02:20:40.396Z,18.98
2023-09-12T02:21:43.256Z,18.98
2023-09-12T02:22:45.155Z,19.00
2023-09-12T02:23:47.016Z,18.97
2023-09-12T02:24:48.726Z,18.98
2023-09-12T02:25:50.609Z,18.98
2023-09-12T02:26:58.846Z,18.98
2023-09-12T02:28:00.680Z,18.99
2023-09-12T02:29:02.455Z,18.99
2023-09-12T02:30:04.607Z,19.00
2023-09-12T02:31:15.527Z,18.97
2023-09-12T02:32:17.316Z,18.95
2023-09-12T02:33:19.844Z,18.96
2023-09-12T02:34:21.948Z,18.95
2023-09-12T02:35:23.699Z,18.89
2023-09-12T02:36:26.285Z,18.84
2023-09-12T02:37:28.044Z,18.85
2023-09-12T02:38:29.841Z,18.85
2023-09-12T02:39:31.995Z,18.84
2023-09-12T02:40:33.913Z,18.83
2023-09-12T02:41:35.759Z,18.81
2023-09-12T02:42:37.725Z,18.82
2023-09-12T02:43:39.629Z,18.81
2023-09-12T02:44:41.484Z,18.82
2023-09-12T02:45:43.958Z,18.81
2023-09-12T02:46:46.033Z,18.76
2023-09-12T02:47:47.905Z,18.75
2023-09-12T02:48:49.857Z,18.78
2023-09-12T02:49:51.819Z,18.79
2023-09-12T02:50:53.606Z,18.77
2023-09-12T02:51:55.379Z,18.76
2023-09-12T02:52:57.103Z,18.75
2023-09-12T02:53:58.845Z,18.76
2023-09-12T02:55:00.673Z,18.76
2023-09-12T02:56:03.223Z,18.76
2023-09-12T02:57:05.164Z,18.75
2023-09-12T02:58:07.023Z,18.76
2023-09-12T02:59:08.760Z,18.76
2023-09-12T03:00:12.800Z,18.77
2023-09-12T03:01:21.531Z,18.79
2023-09-12T03:02:23.483Z,18.79
2023-09-12T03:03:25.507Z,18.79
2023-09-12T03:04:29.860Z,18.81
2023-09-12T03:05:31.730Z,18.81
2023-09-12T03:06:34.253Z,18.83
2023-09-12T03:07:36.116Z,18.83
2023-09-12T03:08:37.849Z,18.81
2023-09-12T03:09:39.723Z,18.76
2023-09-12T03:10:41.620Z,18.76
2023-09-12T03:11:43.391Z,18.75
2023-09-12T03:12:45.172Z,18.74
2023-09-12T03:13:47.877Z,18.76
2023-09-12T03:14:49.556Z,18.76
2023-09-12T03:15:51.483Z,18.77
2023-09-12T03:16:53.275Z,18.76
2023-09-12T03:17:55.204Z,18.76
2023-09-12T03:18:56.987Z,18.76
2023-09-12T03:19:58.815Z,18.75
2023-09-12T03:21:01.942Z,18.71
2023-09-12T03:22:03.867Z,18.69
2023-09-12T03:23:05.686Z,18.68
2023-09-12T03:24:07.604Z,18.65
2023-09-12T03:25:09.493Z,18.65
2023-09-12T03:26:11.490Z,18.65
2023-09-12T03:27:13.294Z,18.67
2023-09-12T03:28:15.108Z,18.67
2023-09-12T03:29:16.829Z,18.67
2023-09-12T03:30:19.103Z,18.66
2023-09-12T03:31:21.057Z,18.66
2023-09-12T03:32:22.989Z,18.63
2023-09-12T03:33:24.834Z,18.64
2023-09-12T03:34:26.782Z,18.64
2023-09-12T03:35:29.896Z,18.65
2023-09-12T03:36:31.757Z,18.65
2023-09-12T03:37:33.607Z,18.65
2023-09-12T03:38:35.954Z,18.64
2023-09-12T03:39:37.884Z,18.64
2023-09-12T03:40:39.712Z,18.64
2023-09-12T03:41:41.556Z,18.66
2023-09-12T03:42:43.381Z,18.65
2023-09-12T03:43:45.115Z,18.63
2023-09-12T03:44:46.856Z,18.62
2023-09-12T03:45:48.793Z,18.61
2023-09-12T03:46:50.734Z,18.58
2023-09-12T03:47:52.831Z,18.57
2023-09-12T03:48:54.689Z,18.58
2023-09-12T03:49:56.548Z,18.58
2023-09-12T03:50:58.320Z,18.58
2023-09-12T03:52:00.135Z,18.55
2023-09-12T03:53:01.868Z,18.52
2023-09-12T03:54:04.086Z,18.52
2023-09-12T03:55:06.366Z,18.49
2023-09-12T03:56:09.605Z,18.48
2023-09-12T03:57:11.459Z,18.43
2023-09-12T03:58:13.274Z,18.40
2023-09-12T03:59:15.063Z,18.40
2023-09-12T04:00:17.105Z,18.39
2023-09-12T04:01:18.852Z,18.38
2023-09-12T04:02:20.852Z,18.39
2023-09-12T04:03:22.751Z,18.38
2023-09-12T04:04:25.060Z,18.39
2023-09-12T04:05:27.406Z,18.41
2023-09-12T04:06:29.300Z,18.40
2023-09-12T04:07:31.040Z,18.39
2023-09-12T04:08:33.803Z,18.42
2023-09-12T04:09:35.569Z,18.42
2023-09-12T04:10:37.786Z,18.43
2023-09-12T04:11:47.218Z,18.44
2023-09-12T04:12:49.620Z,18.44
2023-09-12T04:13:51.491Z,18.43
2023-09-12T04:14:53.923Z,18.42
2023-09-12T04:15:56.312Z,18.40
2023-09-12T04:16:58.503Z,18.40
2023-09-12T04:18:00.398Z,18.38
2023-09-12T04:19:02.234Z,18.36
2023-09-12T04:20:06.082Z,18.35
2023-09-12T04:21:08.114Z,18.37
2023-09-12T04:22:09.913Z,18.34
2023-09-12T04:23:11.718Z,18.28
2023-09-12T04:24:13.477Z,18.27
2023-09-12T04:25:15.359Z,18.27
2023-09-12T04:26:17.193Z,18.28
2023-09-12T04:27:18.994Z,18.30
2023-09-12T04:28:20.834Z,18.33
2023-09-12T04:29:22.926Z,18.34
2023-09-12T04:30:25.037Z,18.35
2023-09-12T04:31:26.936Z,18.36
2023-09-12T04:32:28.717Z,18.36
2023-09-12T04:33:30.642Z,18.37
2023-09-12T04:34:32.598Z,18.37
2023-09-12T04:35:34.844Z,18.39
2023-09-12T04:36:37.005Z,18.40
2023-09-12T04:37:38.891Z,18.40
2023-09-12T04:38:40.696Z,18.40
2023-09-12T04:39:42.510Z,18.41
2023-09-12T04:40:44.400Z,18.41
2023-09-12T04:41:46.137Z,18.41
2023-09-12T04:42:47.921Z,18.42
2023-09-12T04:43:49.678Z,18.43
2023-09-12T04:44:51.563Z,18.41
2023-09-12T04:45:53.432Z,18.39
2023-09-12T04:46:55.420Z,18.36
2023-09-12T04:47:57.232Z,18.34
2023-09-12T04:48:59.122Z,18.31
2023-09-12T04:50:02.640Z,18.30
2023-09-12T04:51:04.631Z,18.31
2023-09-12T04:52:06.652Z,18.31
2023-09-12T04:53:08.435Z,18.33
2023-09-12T04:54:10.261Z,18.33
2023-09-12T04:55:12.096Z,18.33
2023-09-12T04:56:14.294Z,18.35
2023-09-12T04:57:16.161Z,18.35
2023-09-12T04:58:17.928Z,18.33
2023-09-12T04:59:19.686Z,18.32
2023-09-12T05:00:21.636Z,18.33
2023-09-12T05:01:23.893Z,18.33
2023-09-12T05:02:26.991Z,18.32
2023-09-12T05:03:29.012Z,18.34
2023-09-12T05:04:30.849Z,18.34
2023-09-12T05:05:35.555Z,18.34
2023-09-12T05:06:37.473Z,18.32
2023-09-12T05:07:39.315Z,18.32
2023-09-12T05:08:41.398Z,18.31
2023-09-12T05:09:44.111Z,18.33
2023-09-12T05:10:46.131Z,18.33
2023-09-12T05:11:48.218Z,18.34
2023-09-12T05:12:50.158Z,18.35
2023-09-12T05:13:53.649Z,18.34
2023-09-12T05:14:55.930Z,18.33
2023-09-12T05:16:00.573Z,18.33
2023-09-12T05:17:03.141Z,18.32
2023-09-12T05:18:05.535Z,18.33
2023-09-12T05:19:07.354Z,18.33
2023-09-12T05:20:09.441Z,18.35
2023-09-12T05:21:11.549Z,18.36
2023-09-12T05:22:14.155Z,18.38
2023-09-12T05:23:15.939Z,18.37
2023-09-12T05:24:17.764Z,18.37
2023-09-12T05:25:19.553Z,18.38
2023-09-12T05:26:21.260Z,18.38
2023-09-12T05:27:23.043Z,18.36
2023-09-12T05:28:25.068Z,18.36
2023-09-12T05:29:26.809Z,18.35
2023-09-12T05:30:28.633Z,18.34
2023-09-12T05:31:30.461Z,18.32
2023-09-12T05:32:32.610Z,18.34
2023-09-12T05:33:34.465Z,18.35
2023-09-12T05:34:36.348Z,18.34
2023-09-12T05:35:38.883Z,18.33
2023-09-12T05:36:40.701Z,18.34
2023-09-12T05:37:42.755Z,18.36
2023-09-12T05:38:45.484Z,18.36
2023-09-12T05:39:48.062Z,18.36
2023-09-12T05:40:51.279Z,18.37
2023-09-12T05:41:53.022Z,18.38
2023-09-12T05:42:54.928Z,18.38
2023-09-12T05:43:57.009Z,18.39
2023-09-12T05:44:58.955Z,18.41
2023-09-12T05:46:00.734Z,18.42
2023-09-12T05:47:02.605Z,18.43
2023-09-12T05:48:04.624Z,18.42
2023-09-12T05:49:06.435Z,18.42
2023-09-12T05:50:08.554Z,18.42
2023-09-12T05:51:10.427Z,18.42
2023-09-12T05:52:12.548Z,18.42
2023-09-12T05:53:14.315Z,18.42
2023-09-12T05:54:16.956Z,18.43
2023-09-12T05:55:21.661Z,18.44
2023-09-12T05:56:23.524Z,18.47
2023-09-12T05:57:25.320Z,18.46
2023-09-12T05:58:27.218Z,18.47
2023-09-12T05:59:29.214Z,18.48
2023-09-12T06:00:31.022Z,18.48
2023-09-12T06:01:32.983Z,18.50
2023-09-12T06:02:34.967Z,18.48
2023-09-12T06:03:37.233Z,18.49
2023-09-12T06:04:39.459Z,18.50
2023-09-12T06:05:41.224Z,18.47
2023-09-12T06:06:43.053Z,18.48
2023-09-12T06:07:44.965Z,18.52
2023-09-12T06:08:46.699Z,18.54
2023-09-12T06:09:48.617Z,18.55
2023-09-12T06:10:50.825Z,18.54
2023-09-12T06:11:52.696Z,18.56
2023-09-12T06:12:54.556Z,18.58
2023-09-12T06:13:56.296Z,18.61
2023-09-12T06:14:58.077Z,18.62
2023-09-12T06:16:00.950Z,18.63
2023-09-12T06:17:03.006Z,18.66
2023-09-12T06:18:05.308Z,18.67
2023-09-12T06:19:07.096Z,18.68
2023-09-12T06:20:09.505Z,18.71
2023-09-12T06:21:11.275Z,18.70
2023-09-12T06:22:13.064Z,18.68
2023-09-12T06:23:14.767Z,18.68
2023-09-12T06:24:17.806Z,18.71
2023-09-12T06:25:19.707Z,18.71
2023-09-12T06:26:22.407Z,18.73
2023-09-12T06:27:24.328Z,18.76
2023-09-12T06:28:27.437Z,18.79
2023-09-12T06:29:29.229Z,18.81
2023-09-12T06:30:31.094Z,18.83
2023-09-12T06:31:33.337Z,18.86
2023-09-12T06:32:35.316Z,18.89
2023-09-12T06:33:37.192Z,18.93
2023-09-12T06:34:39.080Z,18.96
2023-09-12T06:35:42.525Z,18.98
2023-09-12T06:36:46.562Z,19.02
2023-09-12T06:37:48.628Z,19.07
2023-09-12T06:38:50.388Z,19.09
2023-09-12T06:39:52.848Z,19.14
2023-09-12T06:40:55.037Z,19.17
2023-09-12T06:41:59.009Z,19.22
2023-09-12T06:43:01.434Z,19.26
2023-09-12T06:44:05.493Z,19.28
2023-09-12T06:45:07.504Z,19.30
2023-09-12T06:46:09.335Z,19.33
2023-09-12T06:47:11.744Z,19.37
2023-09-12T06:48:13.579Z,19.38
2023-09-12T06:49:15.518Z,19.36
2023-09-12T06:50:17.695Z,19.36
2023-09-12T06:51:19.586Z,19.38
2023-09-12T06:52:21.451Z,19.39
2023-09-12T06:53:23.510Z,19.39
2023-09-12T06:54:25.278Z,19.41
2023-09-12T06:55:27.157Z,19.46
2023-09-12T06:56:29.102Z,19.48
2023-09-12T06:57:31.529Z,19.50
2023-09-12T06:58:33.837Z,19.52
2023-09-12T06:59:35.995Z,19.57
2023-09-12T07:00:37.859Z,19.61
2023-09-12T07:01:39.672Z,19.63
2023-09-12T07:02:41.499Z,19.66
2023-09-12T07:03:43.606Z,19.69
2023-09-12T07:04:45.598Z,19.72
2023-09-12T07:05:47.412Z,19.77
2023-09-12T07:06:49.300Z,19.83
2023-09-12T07:07:51.135Z,19.89
2023-09-12T07:08:53.101Z,19.95
2023-09-12T07:10:01.643Z,20.00
2023-09-12T07:11:10.158Z,20.03
2023-09-12T07:12:12.036Z,20.09
2023-09-12T07:13:13.841Z,20.14
2023-09-12T07:14:16.597Z,20.16
2023-09-12T07:15:18.480Z,20.19
2023-09-12T07:16:21.833Z,20.22
2023-09-12T07:17:23.725Z,20.26
2023-09-12T07:18:25.577Z,20.29
2023-09-12T07:19:27.348Z,20.32
2023-09-12T07:20:29.251Z,20.36
2023-09-12T07:21:31.114Z,20.40
2023-09-12T07:22:33.659Z,20.42
2023-09-12T07:23:35.379Z,20.45
2023-09-12T07:24:37.107Z,20.48
2023-09-12T07:25:42.831Z,20.51
2023-09-12T07:26:44.788Z,20.55
2023-09-12T07:27:46.657Z,20.57
2023-09-12T07:28:48.646Z,20.62
2023-09-12T07:29:50.437Z,20.65
2023-09-12T07:30:52.397Z,20.69
2023-09-12T07:31:55.064Z,20.73
2023-09-12T07:32:57.307Z,20.72
2023-09-12T07:33:59.094Z,20.74
2023-09-12T07:35:00.979Z,20.78
2023-09-12T07:36:04.149Z,20.81
2023-09-12T07:37:06.205Z,20.86
2023-09-12T07:38:08.168Z,20.90
2023-09-12T07:39:10.757Z,20.93
2023-09-12T07:40:12.699Z,20.98
2023-09-12T07:41:14.569Z,21.00
2023-09-12T07:42:16.560Z,21.01
2023-09-12T07:43:18.450Z,21.03
2023-09-12T07:44:20.178Z,21.05
2023-09-12T07:45:22.226Z,21.07
2023-09-12T07:46:24.027Z,21.11
2023-09-12T07:47:25.839Z,21.16
2023-09-12T07:48:27.992Z,21.22
2023-09-12T07:49:29.793Z,21.30
2023-09-12T07:50:31.534Z,21.31
2023-09-12T07:51:33.339Z,21.38
2023-09-12T07:52:35.830Z,21.42
2023-09-12T07:53:37.642Z,21.48
2023-09-12T07:54:39.340Z,21.52
2023-09-12T07:55:50.627Z,21.55
2023-09-12T07:56:52.447Z,21.58
2023-09-12T07:57:54.210Z,21.63
2023-09-12T07:58:57.013Z,21.65
2023-09-12T07:59:59.411Z,21.70
2023-09-12T08:01:05.525Z,21.71
2023-09-12T08:02:07.305Z,21.73
2023-09-12T08:03:10.488Z,21.76
2023-09-12T08:04:12.467Z,21.80
2023-09-12T08:05:14.311Z,21.84
2023-09-12T08:06:16.036Z,21.89
2023-09-12T08:07:18.298Z,21.94
2023-09-12T08:08:20.153Z,22.00
2023-09-12T08:09:22.012Z,22.04
2023-09-12T08:10:24.146Z,22.07
2023-09-12T08:11:25.952Z,22.13
2023-09-12T08:12:28.551Z,22.18
2023-09-12T08:13:30.960Z,22.24
2023-09-12T08:14:32.790Z,22.28
2023-09-12T08:15:34.687Z,22.34
2023-09-12T08:16:36.443Z,22.38
2023-09-12T08:17:39.941Z,22.45
2023-09-12T08:18:41.872Z,22.49
2023-09-12T08:19:43.807Z,22.52
2023-09-12T08:20:46.167Z,22.55
2023-09-12T08:21:48.014Z,22.62
2023-09-12T08:22:50.357Z,22.66
2023-09-12T08:23:52.108Z,22.70
2023-09-12T08:24:53.976Z,22.73
2023-09-12T08:25:55.855Z,22.71
2023-09-12T08:26:57.633Z,22.77
2023-09-12T08:27:59.569Z,22.79
2023-09-12T08:29:01.349Z,22.85
2023-09-12T08:30:03.825Z,22.87
2023-09-12T08:31:05.653Z,22.92
2023-09-12T08:32:07.467Z,22.94
2023-09-12T08:33:09.497Z,23.00
2023-09-12T08:34:11.385Z,23.02
2023-09-12T08:35:14.064Z,23.09
2023-09-12T08:36:15.822Z,23.13
2023-09-12T08:37:17.624Z,23.17
2023-09-12T08:38:19.302Z,23.21
2023-09-12T08:39:29.218Z,23.23
2023-09-12T08:40:31.742Z,23.26
2023-09-12T08:41:34.396Z,23.29
2023-09-12T08:42:43.830Z,23.34
2023-09-12T08:43:46.644Z,23.35
2023-09-12T08:44:48.427Z,23.38
2023-09-12T08:45:50.462Z,23.43
2023-09-12T08:46:52.405Z,23.47
2023-09-12T08:47:55.431Z,23.51
2023-09-12T08:49:00.345Z,23.57
2023-09-12T08:50:03.576Z,23.61
2023-09-12T08:51:05.799Z,23.62
2023-09-12T08:52:09.660Z,23.63
2023-09-12T08:53:12.066Z,23.65
2023-09-12T08:54:14.552Z,23.69
2023-09-12T08:55:16.312Z,23.73
2023-09-12T08:56:19.026Z,23.77
2023-09-12T08:57:21.178Z,23.81
2023-09-12T08:58:24.060Z,23.84
2023-09-12T08:59:26.101Z,23.89
2023-09-12T09:00:31.802Z,23.94
2023-09-12T09:01:35.298Z,23.97
2023-09-12T09:02:39.473Z,23.98
2023-09-12T09:03:43.226Z,24.01
2023-09-12T09:04:48.479Z,24.04
2023-09-12T09:05:52.869Z,24.07
2023-09-12T09:06:56.129Z,24.11
2023-09-12T09:07:58.569Z,24.14
2023-09-12T09:09:01.317Z,24.19
2023-09-12T09:10:06.429Z,24.20
2023-09-12T09:11:08.724Z,24.26
2023-09-12T09:12:12.042Z,24.30
2023-09-12T09:13:14.525Z,24.34
2023-09-12T09:14:16.288Z,24.37
2023-09-12T09:15:28.589Z,24.41
2023-09-12T09:16:31.188Z,24.46
2023-09-12T09:17:36.125Z,24.47
2023-09-12T09:18:51.066Z,24.52
2023-09-12T09:19:52.938Z,24.55
2023-09-12T09:20:54.672Z,24.58
2023-09-12T09:22:06.213Z,24.61
2023-09-12T09:23:11.722Z,24.64
2023-09-12T09:24:17.171Z,24.67
2023-09-12T09:25:19.429Z,24.70
2023-09-12T09:26:21.522Z,24.74
2023-09-12T09:27:36.394Z,24.77
2023-09-12T09:28:38.331Z,24.82
2023-09-12T09:29:49.609Z,24.86
2023-09-12T09:30:53.242Z,24.90
2023-09-12T09:31:55.415Z,24.95
2023-09-12T09:32:57.724Z,24.97
2023-09-12T09:33:59.862Z,24.97
2023-09-12T09:35:01.714Z,24.99
2023-09-12T09:36:06.973Z,25.01
2023-09-12T09:37:08.837Z,25.05
2023-09-12T09:38:11.116Z,25.07
2023-09-12T09:39:13.982Z,25.12
2023-09-12T09:40:15.839Z,25.18
2023-09-12T09:41:21.078Z,25.26
2023-09-12T09:42:22.783Z,25.33
2023-09-12T09:43:26.513Z,25.41
2023-09-12T09:44:29.441Z,25.49
2023-09-12T09:45:31.966Z,25.55
2023-09-12T09:46:34.626Z,25.60
2023-09-12T09:47:36.458Z,25.66
2023-09-12T09:48:38.373Z,25.69
2023-09-12T09:49:40.177Z,25.74
2023-09-12T09:50:41.929Z,25.77
2023-09-12T09:51:46.814Z,25.83
2023-09-12T09:52:54.265Z,25.88
2023-09-12T09:53:59.458Z,25.96
2023-09-12T09:55:02.284Z,26.01
2023-09-12T09:56:12.018Z,26.08
2023-09-12T09:57:13.732Z,26.14
2023-09-12T09:58:18.207Z,26.18
2023-09-12T09:59:22.025Z,26.22
2023-09-12T10:00:23.904Z,26.27
2023-09-12T10:01:29.769Z,26.31
2023-09-12T10:02:31.741Z,26.34
2023-09-12T10:03:36.859Z,26.40
2023-09-12T10:05:44.943Z,26.57
2023-09-12T10:06:47.737Z,26.63
2023-09-12T10:07:54.842Z,26.71
2023-09-12T10:08:57.461Z,26.76
2023-09-12T10:10:01.103Z,26.80
2023-09-12T10:11:06.013Z,26.82
2023-09-12T10:12:08.168Z,26.88
2023-09-12T10:13:10.631Z,26.92
2023-09-12T10:14:12.969Z,26.99
2023-09-12T10:15:17.223Z,27.05
2023-09-12T10:16:19.552Z,27.07
2023-09-12T10:17:26.535Z,27.11
2023-09-12T10:18:30.705Z,27.15
2023-09-12T10:19:58.883Z,27.18
2023-09-12T10:21:06.010Z,27.24
2023-09-12T10:22:18.819Z,27.29
2023-09-12T10:23:38.333Z,27.36
2023-09-12T10:24:40.870Z,27.43
2023-09-12T10:25:44.328Z,27.46
2023-09-12T10:26:46.627Z,27.48
2023-09-12T10:27:50.294Z,27.53
2023-09-12T10:28:53.140Z,27.61
2023-09-12T10:29:55.257Z,27.66
2023-09-12T10:30:59.102Z,27.74
2023-09-12T10:32:01.519Z,27.82
2023-09-12T10:33:04.790Z,27.89
2023-09-12T10:34:10.574Z,27.96
2023-09-12T10:35:12.455Z,28.01
2023-09-12T10:36:15.617Z,28.06
2023-09-12T10:37:18.266Z,28.11
2023-09-12T10:38:22.173Z,28.15
2023-09-12T10:39:24.080Z,28.20
2023-09-12T10:40:27.050Z,28.23
2023-09-12T10:41:29.433Z,28.30
2023-09-12T10:42:31.931Z,28.37
2023-09-12T10:43:37.008Z,28.41
2023-09-12T10:44:38.816Z,28.48
2023-09-12T10:45:41.192Z,28.55
2023-09-12T10:46:44.751Z,28.62
2023-09-12T10:47:46.652Z,28.67
2023-09-12T10:48:48.781Z,28.72
2023-09-12T10:49:51.817Z,28.77
2023-09-12T10:50:53.639Z,28.80
2023-09-12T10:51:55.526Z,28.83
2023-09-12T10:53:08.991Z,28.87
2023-09-12T10:54:14.524Z,28.91
2023-09-12T10:55:19.788Z,28.98
2023-09-12T10:56:22.567Z,29.01
2023-09-12T10:57:24.626Z,29.06
2023-09-12T10:58:26.477Z,29.12
2023-09-12T10:59:32.877Z,29.20
2023-09-12T11:00:35.702Z,29.27
2023-09-12T11:01:38.890Z,29.34
2023-09-12T11:02:42.586Z,29.42
2023-09-12T11:03:44.769Z,29.45
2023-09-12T11:04:47.124Z,29.46
2023-09-12T11:05:53.930Z,29.52
2023-09-12T11:06:57.062Z,29.59
2023-09-12T11:07:59.968Z,29.63
2023-09-12T11:09:21.196Z,29.69
2023-09-12T11:10:24.224Z,29.76
2023-09-12T11:11:25.990Z,29.81
2023-09-12T11:12:37.350Z,29.87
2023-09-12T11:13:43.242Z,29.89
2023-09-12T11:15:06.966Z,29.89
2023-09-12T11:16:13.338Z,29.95
2023-09-12T11:17:21.796Z,30.02
2023-09-12T11:18:23.638Z,30.08
2023-09-12T11:19:25.493Z,30.13
2023-09-12T11:20:27.334Z,30.19
2023-09-12T11:21:35.230Z,30.24
2023-09-12T11:22:43.239Z,30.31
2023-09-12T11:23:55.064Z,30.35
2023-09-12T11:24:57.784Z,30.39
2023-09-12T11:26:09.080Z,30.42
2023-09-12T11:27:11.745Z,30.45
2023-09-12T11:28:13.681Z,30.46
2023-09-12T11:29:15.480Z,30.48
2023-09-12T11:30:17.800Z,30.50
2023-09-12T11:31:27.150Z,30.55
2023-09-12T11:32:32.309Z,30.61
2023-09-12T11:33:34.512Z,30.65
2023-09-12T11:34:42.426Z,30.67
2023-09-12T11:35:45.029Z,30.73
2023-09-12T11:36:47.499Z,30.78
2023-09-12T11:37:54.382Z,30.80
2023-09-12T11:39:03.501Z,30.80
2023-09-12T11:40:14.156Z,30.82
2023-09-12T11:41:36.293Z,30.84
2023-09-12T11:42:40.814Z,30.88
2023-09-12T11:43:43.174Z,30.92
2023-09-12T11:44:48.231Z,30.98
2023-09-12T11:45:50.690Z,31.00
2023-09-12T11:46:53.619Z,31.06
2023-09-12T11:47:55.528Z,31.07
2023-09-12T11:48:58.144Z,31.10
2023-09-12T11:49:59.923Z,31.12
2023-09-12T11:51:02.981Z,31.18
2023-09-12T11:52:06.177Z,31.24
2023-09-12T11:53:08.298Z,31.25
2023-09-12T11:54:10.206Z,31.26
2023-09-12T11:55:11.964Z,31.29
2023-09-12T11:56:14.376Z,31.32
2023-09-12T11:57:16.840Z,31.34
2023-09-12T11:58:19.399Z,31.33
2023-09-12T11:59:22.713Z,31.36
2023-09-12T12:00:26.915Z,31.38
2023-09-12T12:01:31.553Z,31.41
2023-09-12T12:02:33.609Z,31.43
2023-09-12T12:03:35.690Z,31.46
2023-09-12T12:04:38.049Z,31.50
2023-09-12T12:05:42.419Z,31.55
2023-09-12T12:06:45.300Z,31.59
2023-09-12T12:07:49.066Z,31.63
2023-09-12T12:08:55.982Z,31.63
2023-09-12T12:09:57.962Z,31.66
2023-09-12T12:11:00.783Z,31.68
2023-09-12T12:12:12.982Z,31.66
2023-09-12T12:13:18.629Z,31.66
2023-09-12T12:14:20.974Z,31.63
2023-09-12T12:15:23.314Z,31.68
2023-09-12T12:16:27.729Z,31.74
2023-09-12T12:17:29.844Z,31.74
2023-09-12T12:18:32.199Z,31.79
2023-09-12T12:19:33.985Z,31.87
2023-09-12T12:20:35.904Z,31.96
2023-09-12T12:21:37.798Z,31.99
2023-09-12T12:22:40.174Z,31.98
2023-09-12T12:23:42.514Z,31.97
2023-09-12T12:24:48.195Z,31.96
2023-09-12T12:25:50.748Z,31.89
2023-09-12T12:26:54.462Z,31.87
2023-09-12T12:27:56.443Z,31.88
2023-09-12T12:29:00.072Z,31.86
2023-09-12T12:30:02.362Z,31.80
2023-09-12T12:31:04.440Z,31.81
2023-09-12T12:32:07.014Z,31.86
2023-09-12T12:34:22.240Z,31.84
2023-09-12T12:35:38.097Z,31.82
2023-09-12T12:36:02.509Z,31.86
2023-09-12T12:37:05.064Z,31.81
2023-09-12T12:38:08.822Z,31.83
2023-09-12T12:39:14.376Z,31.85
2023-09-12T12:40:16.939Z,31.91
2023-09-12T12:41:32.040Z,31.91
2023-09-12T12:42:50.014Z,31.94
2023-09-12T12:44:02.986Z,32.05
2023-09-12T12:45:15.122Z,32.03
2023-09-12T12:46:17.051Z,32.06
2023-09-12T12:47:18.980Z,32.09
2023-09-12T12:48:30.358Z,32.03
2023-09-12T12:49:37.066Z,31.95
2023-09-12T12:50:39.968Z,31.86
2023-09-12T12:51:43.621Z,31.89
2023-09-12T12:52:47.530Z,31.87
2023-09-12T12:53:54.617Z,31.86
2023-09-12T12:55:04.428Z,31.88
2023-09-12T12:56:06.249Z,31.89
2023-09-12T12:57:13.693Z,31.92
2023-09-12T12:58:15.474Z,31.88
2023-09-12T12:59:17.371Z,31.84
2023-09-12T13:00:20.641Z,31.79
2023-09-12T13:01:23.129Z,31.73
2023-09-12T13:02:24.987Z,31.64
2023-09-12T13:03:26.902Z,31.58
2023-09-12T13:04:28.856Z,31.59
2023-09-12T13:05:32.138Z,31.57
2023-09-12T13:06:37.210Z,31.58
2023-09-12T13:07:39.399Z,31.61
2023-09-12T13:08:42.597Z,31.63
2023-09-12T13:09:44.493Z,31.63
2023-09-12T13:10:46.384Z,31.67
2023-09-12T13:11:48.256Z,31.74
2023-09-12T13:12:50.729Z,31.81
2023-09-12T13:13:53.307Z,31.88
2023-09-12T13:14:55.614Z,31.96
2023-09-12T13:15:57.790Z,32.07
2023-09-12T13:17:00.451Z,32.14
2023-09-12T13:18:02.379Z,32.20
2023-09-12T13:19:05.082Z,32.29
2023-09-12T13:20:09.730Z,32.33
2023-09-12T13:21:11.520Z,32.23
2023-09-12T13:22:13.296Z,32.17
2023-09-12T13:23:15.079Z,32.10
2023-09-12T13:24:16.900Z,31.98
2023-09-12T13:25:18.758Z,31.88
2023-09-12T13:26:20.494Z,31.81
2023-09-12T13:27:22.404Z,31.68
2023-09-12T13:28:27.682Z,31.59
2023-09-12T13:29:29.421Z,31.50
2023-09-12T13:30:31.214Z,31.39
2023-09-12T13:31:35.714Z,31.26
2023-09-12T13:32:37.671Z,31.18
2023-09-12T13:33:39.716Z,31.07
2023-09-12T13:34:41.597Z,30.98